KSYI/SYI METAR and TAF weather

Enter ICAO airport designator
Station Type Date Time Source
KSYI METAR 2021/04/17 02:15 UTC NOAA

KSYI 170215Z AUTO 00000KT 10SM CLR 11/07 A2988 RMK A01


Station Type Date Time Source
KSYI Decoded METAR 2021/04/17 02:15 UTC NOAA

Station name not available
Apr 16, 2021 - 10:15 PM EDT / 2021.04.17 0215 UTC
Wind: Calm:0
Visibility: 10 mile(s):0
Sky conditions: clear
Temperature: 51 F (11 C)
Dew Point: 44 F (7 C)
Relative Humidity: 76%
Pressure (altimeter): 29.88 in. Hg (1011 hPa)
ob: KSYI 170215Z AUTO 00000KT 10SM CLR 11/07 A2988 RMK A01
cycle: 2

Station Type Date Time Source
KSYI TAF UTC NOAA

Error!

Example: see airport list